sensor_id;sensor_type;location;lat;lon;timestamp;temperature;humidity
802;DHT22;383;48.766;9.270;2023-05-06T00:02:07;16.10;99.90
802;DHT22;383;48.766;9.270;2023-05-06T00:04:33;16.10;99.90
802;DHT22;383;48.766;9.270;2023-05-06T00:07:00;16.10;99.90
802;DHT22;383;48.766;9.270;2023-05-06T00:09:28;16.00;99.90
802;DHT22;383;48.766;9.270;2023-05-06T00:11:55;16.00;99.90
802;DHT22;383;48.766;9.270;2023-05-06T00:14:22;16.00;99.90
802;DHT22;383;48.766;9.270;2023-05-06T00:16:49;15.90;99.90
802;DHT22;383;48.766;9.270;2023-05-06T00:19:16;15.90;99.90
802;DHT22;383;48.766;9.270;2023-05-06T00:21:42;15.90;99.90
802;DHT22;383;48.766;9.270;2023-05-06T00:24:11;16.00;99.90
802;DHT22;383;48.766;9.270;2023-05-06T00:26:39;15.90;99.90
802;DHT22;383;48.766;9.270;2023-05-06T00:29:06;15.90;99.90
802;DHT22;383;48.766;9.270;2023-05-06T00:31:33;16.00;99.90
802;DHT22;383;48.766;9.270;2023-05-06T00:33:59;16.00;99.90
802;DHT22;383;48.766;9.270;2023-05-06T00:36:26;16.00;99.90
802;DHT22;383;48.766;9.270;2023-05-06T00:38:52;16.00;99.90
802;DHT22;383;48.766;9.270;2023-05-06T00:41:19;15.90;99.90
802;DHT22;383;48.766;9.270;2023-05-06T00:43:47;15.90;99.90
802;DHT22;383;48.766;9.270;2023-05-06T00:46:15;15.80;99.90
802;DHT22;383;48.766;9.270;2023-05-06T00:48:42;15.80;99.90
802;DHT22;383;48.766;9.270;2023-05-06T00:51:10;15.70;99.90
802;DHT22;383;48.766;9.270;2023-05-06T00:53:37;15.70;99.90
802;DHT22;383;48.766;9.270;2023-05-06T00:56:04;15.60;99.90
802;DHT22;383;48.766;9.270;2023-05-06T00:58:32;15.50;99.90
802;DHT22;383;48.766;9.270;2023-05-06T01:01:00;15.40;99.90
802;DHT22;383;48.766;9.270;2023-05-06T01:03:27;15.30;99.90
802;DHT22;383;48.766;9.270;2023-05-06T01:05:58;15.20;99.90
802;DHT22;383;48.766;9.270;2023-05-06T01:08:31;15.20;99.90
802;DHT22;383;48.766;9.270;2023-05-06T01:11:05;15.10;99.90
802;DHT22;383;48.766;9.270;2023-05-06T01:13:36;15.10;99.90
802;DHT22;383;48.766;9.270;2023-05-06T01:16:06;15.20;99.90
802;DHT22;383;48.766;9.270;2023-05-06T01:18:35;15.20;99.90
802;DHT22;383;48.766;9.270;2023-05-06T01:21:04;15.20;99.90
802;DHT22;383;48.766;9.270;2023-05-06T01:23:50;15.20;99.90
802;DHT22;383;48.766;9.270;2023-05-06T01:26:17;15.30;99.90
802;DHT22;383;48.766;9.270;2023-05-06T01:28:44;15.30;99.90
802;DHT22;383;48.766;9.270;2023-05-06T01:31:12;15.20;99.90
802;DHT22;383;48.766;9.270;2023-05-06T01:33:43;15.20;99.90
802;DHT22;383;48.766;9.270;2023-05-06T01:36:15;15.10;99.90
802;DHT22;383;48.766;9.270;2023-05-06T01:38:46;15.10;99.90
802;DHT22;383;48.766;9.270;2023-05-06T01:41:19;15.10;99.90
802;DHT22;383;48.766;9.270;2023-05-06T01:43:47;15.00;99.90
802;DHT22;383;48.766;9.270;2023-05-06T01:46:19;15.10;99.90
802;DHT22;383;48.766;9.270;2023-05-06T01:48:49;15.10;99.90
802;DHT22;383;48.766;9.270;2023-05-06T01:51:18;15.10;99.90
802;DHT22;383;48.766;9.270;2023-05-06T01:53:45;15.10;99.90
802;DHT22;383;48.766;9.270;2023-05-06T01:56:12;15.10;99.90
802;DHT22;383;48.766;9.270;2023-05-06T01:58:40;15.10;99.90
802;DHT22;383;48.766;9.270;2023-05-06T02:01:07;15.10;99.90
802;DHT22;383;48.766;9.270;2023-05-06T02:03:34;15.20;99.90
802;DHT22;383;48.766;9.270;2023-05-06T02:06:01;15.30;99.90
802;DHT22;383;48.766;9.270;2023-05-06T02:08:29;15.30;99.90
802;DHT22;383;48.766;9.270;2023-05-06T02:10:55;15.30;99.90
802;DHT22;383;48.766;9.270;2023-05-06T02:13:22;15.20;99.90
802;DHT22;383;48.766;9.270;2023-05-06T02:15:53;15.30;99.90
802;DHT22;383;48.766;9.270;2023-05-06T02:18:19;15.30;99.90
802;DHT22;383;48.766;9.270;2023-05-06T02:20:46;15.20;99.90
802;DHT22;383;48.766;9.270;2023-05-06T02:23:13;15.20;99.90
802;DHT22;383;48.766;9.270;2023-05-06T02:25:40;15.20;99.90
802;DHT22;383;48.766;9.270;2023-05-06T02:28:07;15.20;99.90
802;DHT22;383;48.766;9.270;2023-05-06T02:30:33;15.20;99.90
802;DHT22;383;48.766;9.270;2023-05-06T02:33:02;15.20;99.90
802;DHT22;383;48.766;9.270;2023-05-06T02:35:30;15.20;99.90
802;DHT22;383;48.766;9.270;2023-05-06T02:37:57;15.20;99.90
802;DHT22;383;48.766;9.270;2023-05-06T02:40:24;15.10;99.90
802;DHT22;383;48.766;9.270;2023-05-06T02:42:51;15.10;99.90
802;DHT22;383;48.766;9.270;2023-05-06T02:45:18;15.20;99.90
802;DHT22;383;48.766;9.270;2023-05-06T02:47:44;15.20;99.90
802;DHT22;383;48.766;9.270;2023-05-06T02:50:12;15.10;99.90
802;DHT22;383;48.766;9.270;2023-05-06T02:52:39;15.10;99.90
802;DHT22;383;48.766;9.270;2023-05-06T02:55:07;15.10;99.90
802;DHT22;383;48.766;9.270;2023-05-06T02:57:34;15.10;99.90
802;DHT22;383;48.766;9.270;2023-05-06T03:00:00;15.10;99.90
802;DHT22;383;48.766;9.270;2023-05-06T03:02:27;15.10;99.90
802;DHT22;383;48.766;9.270;2023-05-06T03:04:54;15.10;99.90
802;DHT22;383;48.766;9.270;2023-05-06T03:07:22;15.10;99.90
802;DHT22;383;48.766;9.270;2023-05-06T03:09:48;15.00;99.90
802;DHT22;383;48.766;9.270;2023-05-06T03:12:15;15.00;99.90
802;DHT22;383;48.766;9.270;2023-05-06T03:14:42;15.00;99.90
802;DHT22;383;48.766;9.270;2023-05-06T03:17:09;15.00;99.90
802;DHT22;383;48.766;9.270;2023-05-06T03:19:35;15.10;99.90
802;DHT22;383;48.766;9.270;2023-05-06T03:22:02;15.10;99.90
802;DHT22;383;48.766;9.270;2023-05-06T03:24:30;14.90;99.90
802;DHT22;383;48.766;9.270;2023-05-06T03:26:57;14.90;99.90
802;DHT22;383;48.766;9.270;2023-05-06T03:29:23;14.80;99.90
802;DHT22;383;48.766;9.270;2023-05-06T03:31:50;14.90;99.90
802;DHT22;383;48.766;9.270;2023-05-06T03:34:17;14.80;99.90
802;DHT22;383;48.766;9.270;2023-05-06T03:36:44;14.80;99.90
802;DHT22;383;48.766;9.270;2023-05-06T03:39:10;14.80;99.90
802;DHT22;383;48.766;9.270;2023-05-06T03:41:38;14.80;99.90
802;DHT22;383;48.766;9.270;2023-05-06T03:44:05;14.70;99.90
802;DHT22;383;48.766;9.270;2023-05-06T03:46:32;14.60;99.90
802;DHT22;383;48.766;9.270;2023-05-06T03:48:58;14.50;99.90
802;DHT22;383;48.766;9.270;2023-05-06T03:51:27;14.40;99.90
802;DHT22;383;48.766;9.270;2023-05-06T03:53:54;14.40;99.90
802;DHT22;383;48.766;9.270;2023-05-06T03:56:20;14.40;99.90
802;DHT22;383;48.766;9.270;2023-05-06T03:58:48;14.40;99.90
802;DHT22;383;48.766;9.270;2023-05-06T04:01:15;14.30;99.90
802;DHT22;383;48.766;9.270;2023-05-06T04:03:42;14.30;99.90
802;DHT22;383;48.766;9.270;2023-05-06T04:06:09;14.30;99.90
802;DHT22;383;48.766;9.270;2023-05-06T04:08:36;14.30;99.90
802;DHT22;383;48.766;9.270;2023-05-06T04:11:03;14.20;99.90
802;DHT22;383;48.766;9.270;2023-05-06T04:13:30;14.20;99.90
802;DHT22;383;48.766;9.270;2023-05-06T04:15:58;14.20;99.90
802;DHT22;383;48.766;9.270;2023-05-06T04:18:25;14.20;99.90
802;DHT22;383;48.766;9.270;2023-05-06T04:20:51;14.20;99.90
802;DHT22;383;48.766;9.270;2023-05-06T04:23:19;14.10;99.90
802;DHT22;383;48.766;9.270;2023-05-06T04:25:46;14.10;99.90
802;DHT22;383;48.766;9.270;2023-05-06T04:28:14;14.10;99.90
802;DHT22;383;48.766;9.270;2023-05-06T04:30:42;14.10;99.90
802;DHT22;383;48.766;9.270;2023-05-06T04:33:10;14.00;99.90
802;DHT22;383;48.766;9.270;2023-05-06T04:35:37;14.00;99.90
802;DHT22;383;48.766;9.270;2023-05-06T04:40:34;14.00;99.90
802;DHT22;383;48.766;9.270;2023-05-06T04:43:01;14.00;99.90
802;DHT22;383;48.766;9.270;2023-05-06T04:45:29;13.90;99.90
802;DHT22;383;48.766;9.270;2023-05-06T04:47:56;13.90;99.90
802;DHT22;383;48.766;9.270;2023-05-06T04:50:25;13.90;99.90
802;DHT22;383;48.766;9.270;2023-05-06T04:52:51;13.90;99.90
802;DHT22;383;48.766;9.270;2023-05-06T04:55:18;13.90;99.90
802;DHT22;383;48.766;9.270;2023-05-06T04:57:45;14.00;99.90
802;DHT22;383;48.766;9.270;2023-05-06T05:00:12;14.00;99.90
802;DHT22;383;48.766;9.270;2023-05-06T05:02:40;14.00;99.90
802;DHT22;383;48.766;9.270;2023-05-06T05:05:07;14.00;99.90
802;DHT22;383;48.766;9.270;2023-05-06T05:07:35;14.00;99.90
802;DHT22;383;48.766;9.270;2023-05-06T05:10:02;14.00;99.90
802;DHT22;383;48.766;9.270;2023-05-06T05:12:30;14.00;99.90
802;DHT22;383;48.766;9.270;2023-05-06T05:14:56;14.00;99.90
802;DHT22;383;48.766;9.270;2023-05-06T05:17:23;14.10;99.90
802;DHT22;383;48.766;9.270;2023-05-06T05:19:50;14.10;99.90
802;DHT22;383;48.766;9.270;2023-05-06T05:22:17;14.20;99.90
802;DHT22;383;48.766;9.270;2023-05-06T05:24:45;14.20;99.90
802;DHT22;383;48.766;9.270;2023-05-06T05:27:11;14.20;99.90
802;DHT22;383;48.766;9.270;2023-05-06T05:29:38;14.30;99.90
802;DHT22;383;48.766;9.270;2023-05-06T05:32:05;14.30;99.90
802;DHT22;383;48.766;9.270;2023-05-06T05:34:32;14.30;99.90
802;DHT22;383;48.766;9.270;2023-05-06T05:36:58;14.30;99.90
802;DHT22;383;48.766;9.270;2023-05-06T05:39:25;14.40;99.90
802;DHT22;383;48.766;9.270;2023-05-06T05:41:53;14.50;99.90
802;DHT22;383;48.766;9.270;2023-05-06T05:44:20;14.50;99.90
802;DHT22;383;48.766;9.270;2023-05-06T05:46:46;14.50;99.90
802;DHT22;383;48.766;9.270;2023-05-06T05:49:13;14.60;99.90
802;DHT22;383;48.766;9.270;2023-05-06T05:51:40;14.70;99.90
802;DHT22;383;48.766;9.270;2023-05-06T05:54:07;14.70;99.90
802;DHT22;383;48.766;9.270;2023-05-06T05:56:33;14.80;99.90
802;DHT22;383;48.766;9.270;2023-05-06T05:59:01;14.90;99.90
802;DHT22;383;48.766;9.270;2023-05-06T06:01:28;14.90;99.90
802;DHT22;383;48.766;9.270;2023-05-06T06:03:55;15.00;99.90
802;DHT22;383;48.766;9.270;2023-05-06T06:06:22;15.10;99.90
802;DHT22;383;48.766;9.270;2023-05-06T06:08:49;15.10;99.90
802;DHT22;383;48.766;9.270;2023-05-06T06:11:16;15.30;99.90
802;DHT22;383;48.766;9.270;2023-05-06T06:13:43;15.40;99.90
802;DHT22;383;48.766;9.270;2023-05-06T06:16:11;15.50;99.70
802;DHT22;383;48.766;9.270;2023-05-06T06:18:38;15.60;99.70
802;DHT22;383;48.766;9.270;2023-05-06T06:21:04;15.80;99.60
802;DHT22;383;48.766;9.270;2023-05-06T06:23:31;15.90;99.40
802;DHT22;383;48.766;9.270;2023-05-06T06:25:58;16.00;99.80
802;DHT22;383;48.766;9.270;2023-05-06T06:28:24;16.10;99.50
802;DHT22;383;48.766;9.270;2023-05-06T06:30:51;16.20;99.70
802;DHT22;383;48.766;9.270;2023-05-06T06:33:19;16.30;98.10
802;DHT22;383;48.766;9.270;2023-05-06T06:35:46;16.40;98.30
802;DHT22;383;48.766;9.270;2023-05-06T06:38:13;16.50;97.20
802;DHT22;383;48.766;9.270;2023-05-06T06:40:39;16.60;96.30
802;DHT22;383;48.766;9.270;2023-05-06T06:43:06;16.70;94.20
802;DHT22;383;48.766;9.270;2023-05-06T06:45:33;16.70;94.00
802;DHT22;383;48.766;9.270;2023-05-06T06:47:59;16.80;94.20
802;DHT22;383;48.766;9.270;2023-05-06T06:50:27;16.80;93.80
802;DHT22;383;48.766;9.270;2023-05-06T06:52:54;16.80;94.70
802;DHT22;383;48.766;9.270;2023-05-06T06:55:21;16.90;94.60
802;DHT22;383;48.766;9.270;2023-05-06T06:57:48;17.10;93.80
802;DHT22;383;48.766;9.270;2023-05-06T07:00:15;17.10;94.20
802;DHT22;383;48.766;9.270;2023-05-06T07:02:41;17.20;93.40
802;DHT22;383;48.766;9.270;2023-05-06T07:05:08;17.30;93.10
802;DHT22;383;48.766;9.270;2023-05-06T07:07:36;17.60;92.10
802;DHT22;383;48.766;9.270;2023-05-06T07:10:04;17.80;91.80
802;DHT22;383;48.766;9.270;2023-05-06T07:12:31;18.10;89.60
802;DHT22;383;48.766;9.270;2023-05-06T07:15:00;18.40;86.50
802;DHT22;383;48.766;9.270;2023-05-06T07:17:31;18.40;85.60
802;DHT22;383;48.766;9.270;2023-05-06T07:19:57;18.50;82.70
802;DHT22;383;48.766;9.270;2023-05-06T07:22:24;18.60;82.40
802;DHT22;383;48.766;9.270;2023-05-06T07:24:52;18.70;84.10
802;DHT22;383;48.766;9.270;2023-05-06T07:27:19;18.80;83.60
802;DHT22;383;48.766;9.270;2023-05-06T07:29:45;18.90;80.20
802;DHT22;383;48.766;9.270;2023-05-06T07:32:12;19.00;80.70
802;DHT22;383;48.766;9.270;2023-05-06T07:34:39;19.00;80.60
802;DHT22;383;48.766;9.270;2023-05-06T07:37:05;19.00;82.20
802;DHT22;383;48.766;9.270;2023-05-06T07:39:33;19.00;81.40
802;DHT22;383;48.766;9.270;2023-05-06T07:42:01;19.10;80.60
802;DHT22;383;48.766;9.270;2023-05-06T07:44:28;19.20;79.10
802;DHT22;383;48.766;9.270;2023-05-06T07:46:54;19.30;79.80
802;DHT22;383;48.766;9.270;2023-05-06T07:49:21;19.20;80.20
802;DHT22;383;48.766;9.270;2023-05-06T07:51:48;19.20;81.20
802;DHT22;383;48.766;9.270;2023-05-06T07:54:15;19.20;78.90
802;DHT22;383;48.766;9.270;2023-05-06T07:56:42;19.10;79.00
802;DHT22;383;48.766;9.270;2023-05-06T07:59:10;19.00;79.70
802;DHT22;383;48.766;9.270;2023-05-06T08:01:37;18.90;78.70
802;DHT22;383;48.766;9.270;2023-05-06T08:04:05;18.90;80.70
802;DHT22;383;48.766;9.270;2023-05-06T08:06:32;19.00;81.10
802;DHT22;383;48.766;9.270;2023-05-06T08:08:59;19.20;80.70
802;DHT22;383;48.766;9.270;2023-05-06T08:11:25;19.20;80.20
802;DHT22;383;48.766;9.270;2023-05-06T08:13:52;19.40;81.60
802;DHT22;383;48.766;9.270;2023-05-06T08:16:20;19.80;77.30
802;DHT22;383;48.766;9.270;2023-05-06T08:18:47;19.90;76.30
802;DHT22;383;48.766;9.270;2023-05-06T08:21:13;20.10;75.30
802;DHT22;383;48.766;9.270;2023-05-06T08:23:40;20.30;74.10
802;DHT22;383;48.766;9.270;2023-05-06T08:26:07;20.40;73.40
802;DHT22;383;48.766;9.270;2023-05-06T08:28:33;20.30;72.40
802;DHT22;383;48.766;9.270;2023-05-06T08:31:00;20.10;71.30
802;DHT22;383;48.766;9.270;2023-05-06T08:33:28;20.00;72.00
802;DHT22;383;48.766;9.270;2023-05-06T08:35:56;19.90;76.00
802;DHT22;383;48.766;9.270;2023-05-06T08:38:23;19.80;75.60
802;DHT22;383;48.766;9.270;2023-05-06T08:40:51;19.90;75.60
802;DHT22;383;48.766;9.270;2023-05-06T08:43:20;20.20;76.70
802;DHT22;383;48.766;9.270;2023-05-06T08:45:50;20.40;72.50
802;DHT22;383;48.766;9.270;2023-05-06T08:48:17;20.70;75.20
802;DHT22;383;48.766;9.270;2023-05-06T08:50:48;20.90;72.90
802;DHT22;383;48.766;9.270;2023-05-06T08:53:15;21.10;70.00
802;DHT22;383;48.766;9.270;2023-05-06T08:55:42;21.20;68.70
802;DHT22;383;48.766;9.270;2023-05-06T08:58:12;21.20;70.30
802;DHT22;383;48.766;9.270;2023-05-06T09:03:18;20.90;67.90
802;DHT22;383;48.766;9.270;2023-05-06T09:05:46;20.70;67.90
802;DHT22;383;48.766;9.270;2023-05-06T09:08:13;20.50;68.20
802;DHT22;383;48.766;9.270;2023-05-06T09:10:42;20.40;70.30
802;DHT22;383;48.766;9.270;2023-05-06T09:13:11;20.40;71.20
802;DHT22;383;48.766;9.270;2023-05-06T09:15:38;20.50;71.70
802;DHT22;383;48.766;9.270;2023-05-06T09:18:06;20.60;70.90
802;DHT22;383;48.766;9.270;2023-05-06T09:20:33;20.70;69.60
802;DHT22;383;48.766;9.270;2023-05-06T09:23:01;20.90;67.50
802;DHT22;383;48.766;9.270;2023-05-06T09:25:28;20.90;70.00
802;DHT22;383;48.766;9.270;2023-05-06T09:28:02;21.10;68.70
802;DHT22;383;48.766;9.270;2023-05-06T09:30:29;21.30;64.10
802;DHT22;383;48.766;9.270;2023-05-06T09:32:56;21.50;66.60
802;DHT22;383;48.766;9.270;2023-05-06T09:35:26;21.90;64.50
802;DHT22;383;48.766;9.270;2023-05-06T09:37:52;22.10;63.00
802;DHT22;383;48.766;9.270;2023-05-06T09:40:22;22.20;62.20
802;DHT22;383;48.766;9.270;2023-05-06T09:42:50;22.40;61.70
802;DHT22;383;48.766;9.270;2023-05-06T09:45:17;22.30;63.40
802;DHT22;383;48.766;9.270;2023-05-06T09:47:44;22.30;63.80
802;DHT22;383;48.766;9.270;2023-05-06T09:50:14;22.50;62.20
802;DHT22;383;48.766;9.270;2023-05-06T09:52:43;22.70;60.40
802;DHT22;383;48.766;9.270;2023-05-06T09:55:11;22.60;59.50
802;DHT22;383;48.766;9.270;2023-05-06T09:57:40;22.60;61.70
802;DHT22;383;48.766;9.270;2023-05-06T10:00:08;22.60;61.70
802;DHT22;383;48.766;9.270;2023-05-06T10:02:37;22.70;59.80
802;DHT22;383;48.766;9.270;2023-05-06T10:05:04;22.80;61.80
802;DHT22;383;48.766;9.270;2023-05-06T10:07:31;22.90;61.80
802;DHT22;383;48.766;9.270;2023-05-06T10:09:59;22.90;59.80
802;DHT22;383;48.766;9.270;2023-05-06T10:12:27;22.90;59.50
802;DHT22;383;48.766;9.270;2023-05-06T10:14:55;23.00;61.30
802;DHT22;383;48.766;9.270;2023-05-06T10:17:23;23.20;59.20
802;DHT22;383;48.766;9.270;2023-05-06T10:19:56;23.30;59.20
802;DHT22;383;48.766;9.270;2023-05-06T10:22:32;23.30;59.80
802;DHT22;383;48.766;9.270;2023-05-06T10:25:03;23.40;59.60
802;DHT22;383;48.766;9.270;2023-05-06T10:27:34;23.50;59.60
802;DHT22;383;48.766;9.270;2023-05-06T10:30:09;23.40;56.20
802;DHT22;383;48.766;9.270;2023-05-06T10:32:40;23.30;59.30
802;DHT22;383;48.766;9.270;2023-05-06T10:35:11;23.40;59.50
802;DHT22;383;48.766;9.270;2023-05-06T10:37:41;23.50;54.00
802;DHT22;383;48.766;9.270;2023-05-06T10:40:10;23.40;56.10
802;DHT22;383;48.766;9.270;2023-05-06T10:42:37;23.20;55.70
802;DHT22;383;48.766;9.270;2023-05-06T10:45:06;23.10;55.50
802;DHT22;383;48.766;9.270;2023-05-06T10:48:05;23.00;56.20
802;DHT22;383;48.766;9.270;2023-05-06T10:50:33;22.90;55.90
802;DHT22;383;48.766;9.270;2023-05-06T10:52:59;22.70;55.90
802;DHT22;383;48.766;9.270;2023-05-06T10:55:28;22.50;58.60
802;DHT22;383;48.766;9.270;2023-05-06T10:57:56;22.50;57.60
802;DHT22;383;48.766;9.270;2023-05-06T11:00:24;22.50;60.10
802;DHT22;383;48.766;9.270;2023-05-06T11:02:55;22.60;59.00
802;DHT22;383;48.766;9.270;2023-05-06T11:05:23;22.70;57.50
802;DHT22;383;48.766;9.270;2023-05-06T11:07:50;22.60;57.00
802;DHT22;383;48.766;9.270;2023-05-06T11:10:31;22.60;58.70
802;DHT22;383;48.766;9.270;2023-05-06T11:13:00;22.70;57.50
802;DHT22;383;48.766;9.270;2023-05-06T11:15:44;22.60;59.70
802;DHT22;383;48.766;9.270;2023-05-06T11:18:40;22.70;58.70
802;DHT22;383;48.766;9.270;2023-05-06T11:21:36;22.60;61.10
802;DHT22;383;48.766;9.270;2023-05-06T11:24:10;22.70;59.60
802;DHT22;383;48.766;9.270;2023-05-06T11:26:42;22.90;58.70
802;DHT22;383;48.766;9.270;2023-05-06T11:29:09;23.20;59.80
802;DHT22;383;48.766;9.270;2023-05-06T11:31:41;23.30;57.20
802;DHT22;383;48.766;9.270;2023-05-06T11:34:11;23.50;56.70
802;DHT22;383;48.766;9.270;2023-05-06T11:36:54;23.50;57.10
802;DHT22;383;48.766;9.270;2023-05-06T11:39:23;23.60;57.60
802;DHT22;383;48.766;9.270;2023-05-06T11:41:51;23.70;56.00
802;DHT22;383;48.766;9.270;2023-05-06T11:44:25;23.60;55.70
802;DHT22;383;48.766;9.270;2023-05-06T11:46:58;23.40;58.10
802;DHT22;383;48.766;9.270;2023-05-06T11:49:25;23.60;56.60
802;DHT22;383;48.766;9.270;2023-05-06T11:51:52;23.60;56.90
802;DHT22;383;48.766;9.270;2023-05-06T11:54:21;23.60;56.00
802;DHT22;383;48.766;9.270;2023-05-06T11:56:49;23.50;55.60
802;DHT22;383;48.766;9.270;2023-05-06T11:59:23;23.30;56.40
802;DHT22;383;48.766;9.270;2023-05-06T12:01:51;23.30;57.40
802;DHT22;383;48.766;9.270;2023-05-06T12:04:19;23.20;54.90
802;DHT22;383;48.766;9.270;2023-05-06T12:06:45;23.10;55.60
802;DHT22;383;48.766;9.270;2023-05-06T12:09:12;23.00;58.60
802;DHT22;383;48.766;9.270;2023-05-06T12:11:40;23.00;57.00
802;DHT22;383;48.766;9.270;2023-05-06T12:14:08;22.90;57.00
802;DHT22;383;48.766;9.270;2023-05-06T12:16:36;22.90;58.30
802;DHT22;383;48.766;9.270;2023-05-06T12:19:03;23.00;55.50
802;DHT22;383;48.766;9.270;2023-05-06T12:21:31;23.20;55.40
802;DHT22;383;48.766;9.270;2023-05-06T12:24:03;23.20;58.10
802;DHT22;383;48.766;9.270;2023-05-06T12:26:41;23.30;57.00
802;DHT22;383;48.766;9.270;2023-05-06T12:29:09;23.40;55.60
802;DHT22;383;48.766;9.270;2023-05-06T12:31:37;23.40;55.20
802;DHT22;383;48.766;9.270;2023-05-06T12:34:04;23.50;56.10
802;DHT22;383;48.766;9.270;2023-05-06T12:36:38;23.70;56.40
802;DHT22;383;48.766;9.270;2023-05-06T12:39:05;24.10;55.60
802;DHT22;383;48.766;9.270;2023-05-06T12:41:37;24.40;53.10
802;DHT22;383;48.766;9.270;2023-05-06T12:44:28;24.70;52.80
802;DHT22;383;48.766;9.270;2023-05-06T12:46:56;25.10;53.60
802;DHT22;383;48.766;9.270;2023-05-06T12:49:23;25.30;49.80
802;DHT22;383;48.766;9.270;2023-05-06T12:52:07;25.20;50.40
802;DHT22;383;48.766;9.270;2023-05-06T12:54:35;25.10;49.50
802;DHT22;383;48.766;9.270;2023-05-06T12:57:02;24.90;50.90
802;DHT22;383;48.766;9.270;2023-05-06T12:59:30;24.90;51.50
802;DHT22;383;48.766;9.270;2023-05-06T13:01:57;25.10;51.00
802;DHT22;383;48.766;9.270;2023-05-06T13:04:24;25.20;49.30
802;DHT22;383;48.766;9.270;2023-05-06T13:06:51;25.20;48.90
802;DHT22;383;48.766;9.270;2023-05-06T13:09:19;25.10;50.90
802;DHT22;383;48.766;9.270;2023-05-06T13:11:46;25.00;51.60
802;DHT22;383;48.766;9.270;2023-05-06T13:14:13;25.10;49.70
802;DHT22;383;48.766;9.270;2023-05-06T13:16:40;25.20;50.30
802;DHT22;383;48.766;9.270;2023-05-06T13:19:08;25.50;50.50
802;DHT22;383;48.766;9.270;2023-05-06T13:21:35;25.60;48.90
802;DHT22;383;48.766;9.270;2023-05-06T13:24:03;25.60;49.80
802;DHT22;383;48.766;9.270;2023-05-06T13:26:31;25.70;49.40
802;DHT22;383;48.766;9.270;2023-05-06T13:28:58;25.90;50.00
802;DHT22;383;48.766;9.270;2023-05-06T13:31:25;26.10;48.20
802;DHT22;383;48.766;9.270;2023-05-06T13:33:52;26.20;47.40
802;DHT22;383;48.766;9.270;2023-05-06T13:36:19;26.00;47.80
802;DHT22;383;48.766;9.270;2023-05-06T13:38:46;25.90;47.80
802;DHT22;383;48.766;9.270;2023-05-06T13:41:13;25.70;49.30
802;DHT22;383;48.766;9.270;2023-05-06T13:43:41;25.60;48.30
802;DHT22;383;48.766;9.270;2023-05-06T13:46:16;25.40;49.30
802;DHT22;383;48.766;9.270;2023-05-06T13:48:44;25.40;47.80
802;DHT22;383;48.766;9.270;2023-05-06T13:51:11;25.30;49.50
802;DHT22;383;48.766;9.270;2023-05-06T13:53:38;25.50;47.80
802;DHT22;383;48.766;9.270;2023-05-06T13:56:05;25.70;48.30
802;DHT22;383;48.766;9.270;2023-05-06T13:58:33;25.90;48.10
802;DHT22;383;48.766;9.270;2023-05-06T14:01:01;26.10;48.10
802;DHT22;383;48.766;9.270;2023-05-06T14:03:28;26.60;47.40
802;DHT22;383;48.766;9.270;2023-05-06T14:05:55;26.80;46.40
802;DHT22;383;48.766;9.270;2023-05-06T14:08:22;26.90;44.80
802;DHT22;383;48.766;9.270;2023-05-06T14:10:49;27.00;47.80
802;DHT22;383;48.766;9.270;2023-05-06T14:13:18;27.30;45.80
802;DHT22;383;48.766;9.270;2023-05-06T14:15:45;27.70;44.30
802;DHT22;383;48.766;9.270;2023-05-06T14:18:13;27.70;43.60
802;DHT22;383;48.766;9.270;2023-05-06T14:20:40;27.70;44.70
802;DHT22;383;48.766;9.270;2023-05-06T14:23:07;27.70;43.00
802;DHT22;383;48.766;9.270;2023-05-06T14:25:34;27.50;44.70
802;DHT22;383;48.766;9.270;2023-05-06T14:28:00;27.70;44.60
802;DHT22;383;48.766;9.270;2023-05-06T14:30:27;27.80;43.70
802;DHT22;383;48.766;9.270;2023-05-06T14:32:55;27.90;43.50
802;DHT22;383;48.766;9.270;2023-05-06T14:35:23;27.70;43.20
802;DHT22;383;48.766;9.270;2023-05-06T14:37:50;27.80;43.70
802;DHT22;383;48.766;9.270;2023-05-06T14:40:17;27.90;42.50
802;DHT22;383;48.766;9.270;2023-05-06T14:42:44;27.70;43.60
802;DHT22;383;48.766;9.270;2023-05-06T14:45:11;27.70;43.00
802;DHT22;383;48.766;9.270;2023-05-06T14:47:38;27.50;43.70
802;DHT22;383;48.766;9.270;2023-05-06T14:50:07;27.50;42.80
802;DHT22;383;48.766;9.270;2023-05-06T14:52:36;27.50;43.00
802;DHT22;383;48.766;9.270;2023-05-06T14:55:05;27.50;43.50
802;DHT22;383;48.766;9.270;2023-05-06T14:57:32;27.50;42.60
802;DHT22;383;48.766;9.270;2023-05-06T14:59:58;27.50;43.30
802;DHT22;383;48.766;9.270;2023-05-06T15:02:25;27.60;42.20
802;DHT22;383;48.766;9.270;2023-05-06T15:04:52;27.60;42.50
802;DHT22;383;48.766;9.270;2023-05-06T15:07:19;27.50;43.20
802;DHT22;383;48.766;9.270;2023-05-06T15:09:47;27.50;42.00
802;DHT22;383;48.766;9.270;2023-05-06T15:12:14;27.50;42.10
802;DHT22;383;48.766;9.270;2023-05-06T15:14:40;27.40;42.70
802;DHT22;383;48.766;9.270;2023-05-06T15:17:07;27.30;42.70
802;DHT22;383;48.766;9.270;2023-05-06T15:19:34;27.20;43.20
802;DHT22;383;48.766;9.270;2023-05-06T15:22:01;27.10;42.00
802;DHT22;383;48.766;9.270;2023-05-06T15:24:27;27.10;43.00
802;DHT22;383;48.766;9.270;2023-05-06T15:26:56;27.00;42.50
802;DHT22;383;48.766;9.270;2023-05-06T15:29:22;26.80;42.60
802;DHT22;383;48.766;9.270;2023-05-06T15:31:49;26.50;43.70
802;DHT22;383;48.766;9.270;2023-05-06T15:34:16;26.40;43.70
802;DHT22;383;48.766;9.270;2023-05-06T15:36:44;26.30;44.70
802;DHT22;383;48.766;9.270;2023-05-06T15:39:15;26.20;44.20
802;DHT22;383;48.766;9.270;2023-05-06T15:41:41;26.10;45.10
802;DHT22;383;48.766;9.270;2023-05-06T15:44:10;26.00;44.30
802;DHT22;383;48.766;9.270;2023-05-06T15:46:37;25.90;45.00
802;DHT22;383;48.766;9.270;2023-05-06T15:49:04;25.70;44.00
802;DHT22;383;48.766;9.270;2023-05-06T15:51:31;25.60;44.10
802;DHT22;383;48.766;9.270;2023-05-06T15:53:58;25.50;44.10
802;DHT22;383;48.766;9.270;2023-05-06T15:56:24;25.30;43.80
802;DHT22;383;48.766;9.270;2023-05-06T15:58:51;25.30;44.70
802;DHT22;383;48.766;9.270;2023-05-06T16:01:19;25.20;43.80
802;DHT22;383;48.766;9.270;2023-05-06T16:03:46;25.20;45.20
802;DHT22;383;48.766;9.270;2023-05-06T16:06:14;25.20;45.70
802;DHT22;383;48.766;9.270;2023-05-06T16:08:40;25.30;44.30
802;DHT22;383;48.766;9.270;2023-05-06T16:11:07;25.40;44.30
802;DHT22;383;48.766;9.270;2023-05-06T16:13:34;25.20;44.00
802;DHT22;383;48.766;9.270;2023-05-06T16:16:00;25.00;43.80
802;DHT22;383;48.766;9.270;2023-05-06T16:18:29;24.90;46.30
802;DHT22;383;48.766;9.270;2023-05-06T16:20:56;24.90;45.10
802;DHT22;383;48.766;9.270;2023-05-06T16:23:25;25.00;45.20
802;DHT22;383;48.766;9.270;2023-05-06T16:25:52;25.10;47.10
802;DHT22;383;48.766;9.270;2023-05-06T16:28:19;25.20;44.60
802;DHT22;383;48.766;9.270;2023-05-06T16:30:45;25.20;44.20
802;DHT22;383;48.766;9.270;2023-05-06T16:33:12;25.20;44.50
802;DHT22;383;48.766;9.270;2023-05-06T16:35:40;25.10;45.10
802;DHT22;383;48.766;9.270;2023-05-06T16:38:07;24.90;45.90
802;DHT22;383;48.766;9.270;2023-05-06T16:40:39;25.00;44.00
802;DHT22;383;48.766;9.270;2023-05-06T16:43:06;24.90;45.60
802;DHT22;383;48.766;9.270;2023-05-06T16:45:33;24.90;45.20